Time,TemperatureF,DewpointF,PressureIn,WindDirection,WindDirectionDegrees,WindSpeedMPH,WindSpeedGustMPH,Humidity,HourlyPrecipIn,Conditions,Clouds,dailyrainin,SolarRadiationWatts/m^2,SoftwareType,DateUTC
2013-06-19 00:22:00,46.0,41.0,-100.00,NNE,13,1.0,4.0,83,0.00,,,0.01,0.000000,,2013-06-19 07:22:00,
2013-06-19 00:33:00,46.0,41.0,-100.00,NNE,13,1.0,4.0,83,0.00,,,0.01,0.000000,,2013-06-19 07:33:00,
2013-06-19 00:43:00,46.0,41.0,-100.00,NNE,13,1.0,4.0,83,0.00,,,0.01,0.000000,,2013-06-19 07:43:00,
2013-06-19 00:53:00,43.0,41.0,-100.00,NNE,17,1.0,6.0,91,0.00,,,0.01,0.000000,,2013-06-19 07:53:00,
2013-06-19 01:22:00,43.0,41.0,-100.00,NNE,17,1.0,6.0,91,0.00,,,0.01,0.000000,,2013-06-19 08:22:00,
2013-06-19 01:33:00,43.0,41.0,-100.00,NNE,17,1.0,6.0,91,0.00,,,0.01,0.000000,,2013-06-19 08:33:00,
2013-06-19 01:43:00,43.0,41.0,-100.00,NNE,17,1.0,6.0,91,0.00,,,0.01,0.000000,,2013-06-19 08:43:00,
2013-06-19 01:53:00,43.0,41.0,-100.00,North,359,1.0,4.0,93,0.00,,,0.01,0.000000,,2013-06-19 08:53:00,
2013-06-19 02:11:00,43.0,41.0,-100.00,North,359,1.0,4.0,93,0.00,,,0.01,0.000000,,2013-06-19 09:11:00,
2013-06-19 02:22:00,43.0,41.0,-100.00,North,359,1.0,4.0,93,0.00,,,0.01,0.000000,,2013-06-19 09:22:00,
2013-06-19 02:34:00,43.0,41.0,-100.00,North,359,1.0,4.0,93,0.00,,,0.01,0.000000,,2013-06-19 09:34:00,
2013-06-19 02:43:00,43.0,41.0,-100.00,North,359,1.0,4.0,93,0.00,,,0.01,0.000000,,2013-06-19 09:43:00,
2013-06-19 03:22:00,44.0,42.0,-100.00,SSW,209,1.0,7.0,94,0.00,,,0.01,0.000000,,2013-06-19 10:22:00,
2013-06-19 03:33:00,44.0,42.0,-100.00,SSW,209,1.0,7.0,94,0.00,,,0.01,0.000000,,2013-06-19 10:33:00,
2013-06-19 03:42:00,44.0,42.0,-100.00,SSW,209,1.0,7.0,94,0.00,,,0.01,0.000000,,2013-06-19 10:42:00,
2013-06-19 03:52:00,44.0,42.0,-100.00,SSW,209,1.0,7.0,94,0.00,,,0.01,0.000000,,2013-06-19 10:52:00,
2013-06-19 03:53:00,44.0,42.0,-100.00,North,1,1.0,5.0,93,0.00,,,0.00,0.000000,,2013-06-19 10:53:00,
2013-06-19 04:22:00,44.0,42.0,-100.00,North,1,1.0,5.0,93,0.00,,,0.00,0.000000,,2013-06-19 11:22:00,
2013-06-19 04:33:00,44.0,42.0,-100.00,North,1,1.0,5.0,93,0.00,,,0.00,0.000000,,2013-06-19 11:33:00,
2013-06-19 04:42:00,44.0,42.0,-100.00,North,1,1.0,5.0,93,0.00,,,0.00,0.000000,,2013-06-19 11:42:00,
2013-06-19 05:11:00,42.0,40.0,-100.00,North,355,1.0,3.0,94,0.00,,,0.00,0.000000,,2013-06-19 12:11:00,
2013-06-19 05:22:00,42.0,40.0,-100.00,North,355,1.0,3.0,94,0.00,,,0.00,0.000000,,2013-06-19 12:22:00,
2013-06-19 05:34:00,42.0,40.0,-100.00,North,355,1.0,3.0,94,0.00,,,0.00,0.000000,,2013-06-19 12:34:00,
2013-06-19 05:44:00,42.0,40.0,-100.00,North,355,1.0,3.0,94,0.00,,,0.00,0.000000,,2013-06-19 12:44:00,
2013-06-19 05:52:00,42.0,40.0,-100.00,North,355,1.0,3.0,94,0.00,,,0.00,0.000000,,2013-06-19 12:52:00,
2013-06-19 05:53:00,42.0,40.0,-100.00,NNE,27,1.0,3.0,93,0.00,,,0.00,0.000000,,2013-06-19 12:53:00,
2013-06-19 06:22:00,42.0,40.0,-100.00,NNE,27,1.0,3.0,93,0.00,,,0.00,0.000000,,2013-06-19 13:22:00,
2013-06-19 06:33:00,42.0,40.0,-100.00,NNE,27,1.0,3.0,93,0.00,,,0.00,0.000000,,2013-06-19 13:33:00,
2013-06-19 06:42:00,42.0,40.0,-100.00,NNE,27,1.0,3.0,93,0.00,,,0.00,0.000000,,2013-06-19 13:42:00,
2013-06-19 07:11:00,43.0,41.0,-100.00,NE,42,1.0,4.0,94,0.00,,,0.00,12.000000,,2013-06-19 14:11:00,
2013-06-19 07:22:00,43.0,41.0,-100.00,NE,42,1.0,4.0,94,0.00,,,0.00,12.000000,,2013-06-19 14:22:00,
2013-06-19 07:33:00,43.0,41.0,-100.00,NE,42,1.0,4.0,94,0.00,,,0.00,12.000000,,2013-06-19 14:33:00,
2013-06-19 07:43:00,43.0,41.0,-100.00,NE,42,1.0,4.0,94,0.00,,,0.00,12.000000,,2013-06-19 14:43:00,
2013-06-19 07:52:00,43.0,41.0,-100.00,NE,42,1.0,4.0,94,0.00,,,0.00,12.000000,,2013-06-19 14:52:00,
2013-06-19 07:53:00,43.0,40.0,-100.00,ESE,102,2.0,7.0,90,0.00,,,0.00,82.000000,,2013-06-19 14:53:00,
2013-06-19 08:22:00,43.0,40.0,-100.00,ESE,102,2.0,7.0,90,0.00,,,0.00,82.000000,,2013-06-19 15:22:00,
2013-06-19 08:33:00,43.0,40.0,-100.00,ESE,102,2.0,7.0,90,0.00,,,0.00,82.000000,,2013-06-19 15:33:00,
2013-06-19 08:42:00,43.0,40.0,-100.00,ESE,102,2.0,7.0,90,0.00,,,0.00,82.000000,,2013-06-19 15:42:00,
2013-06-19 09:22:00,47.0,42.0,-100.00,North,355,2.0,9.0,83,0.00,,,0.00,221.000000,,2013-06-19 16:22:00,
2013-06-19 09:33:00,47.0,42.0,-100.00,North,355,2.0,9.0,83,0.00,,,0.00,221.000000,,2013-06-19 16:33:00,
2013-06-19 09:43:00,47.0,42.0,-100.00,North,355,2.0,9.0,83,0.00,,,0.00,221.000000,,2013-06-19 16:43:00,
2013-06-19 09:52:00,47.0,42.0,-100.00,North,355,2.0,9.0,83,0.00,,,0.00,221.000000,,2013-06-19 16:52:00,
2013-06-19 09:53:00,43.0,40.0,-100.00,SSE,164,1.0,10.0,88,0.00,,,0.00,106.000000,,2013-06-19 16:53:00,
2013-06-19 10:22:00,43.0,40.0,-100.00,SSE,164,1.0,10.0,88,0.00,,,0.00,106.000000,,2013-06-19 17:22:00,
2013-06-19 10:34:00,43.0,40.0,-100.00,SSE,164,1.0,10.0,88,0.00,,,0.00,106.000000,,2013-06-19 17:34:00,
2013-06-19 10:43:00,43.0,40.0,-100.00,SSE,164,1.0,10.0,88,0.00,,,0.00,106.000000,,2013-06-19 17:43:00,
2013-06-19 11:23:00,43.0,39.0,-100.00,SSW,201,1.0,8.0,87,0.01,,,0.01,141.000000,,2013-06-19 18:23:00,
2013-06-19 11:33:00,43.0,39.0,-100.00,SSW,201,1.0,8.0,87,0.01,,,0.01,141.000000,,2013-06-19 18:33:00,
2013-06-19 11:44:00,43.0,39.0,-100.00,SSW,201,1.0,8.0,87,0.01,,,0.01,141.000000,,2013-06-19 18:44:00,
2013-06-19 11:52:00,43.0,39.0,-100.00,SSW,201,1.0,8.0,87,0.01,,,0.01,141.000000,,2013-06-19 18:52:00,
2013-06-19 12:11:00,45.0,41.0,-100.00,West,278,2.0,8.0,85,0.01,,,0.02,189.000000,,2013-06-19 19:11:00,
2013-06-19 12:22:00,45.0,41.0,-100.00,West,278,2.0,8.0,85,0.01,,,0.02,189.000000,,2013-06-19 19:22:00,
2013-06-19 12:32:00,45.0,41.0,-100.00,West,278,2.0,8.0,85,0.01,,,0.02,189.000000,,2013-06-19 19:32:00,
2013-06-19 12:43:00,45.0,41.0,-100.00,West,278,2.0,8.0,85,0.01,,,0.02,189.000000,,2013-06-19 19:43:00,
2013-06-19 12:52:00,45.0,41.0,-100.00,West,278,2.0,8.0,85,0.01,,,0.02,189.000000,,2013-06-19 19:52:00,
2013-06-19 13:22:00,47.0,39.0,-100.00,ESE,112,2.0,9.0,73,0.00,,,0.02,341.000000,,2013-06-19 20:22:00,
2013-06-19 13:33:00,47.0,39.0,-100.00,ESE,112,2.0,9.0,73,0.00,,,0.02,341.000000,,2013-06-19 20:33:00,
2013-06-19 13:42:00,47.0,39.0,-100.00,ESE,112,2.0,9.0,73,0.00,,,0.02,341.000000,,2013-06-19 20:42:00,
2013-06-19 13:52:00,47.0,39.0,-100.00,ESE,112,2.0,9.0,73,0.00,,,0.02,341.000000,,2013-06-19 20:52:00,
2013-06-19 14:22:00,47.0,41.0,-100.00,NNE,13,3.0,11.0,80,0.00,,,0.02,317.000000,,2013-06-19 21:22:00,
2013-06-19 14:33:00,47.0,41.0,-100.00,NNE,13,3.0,11.0,80,0.00,,,0.02,317.000000,,2013-06-19 21:33:00,
2013-06-19 14:44:00,47.0,41.0,-100.00,NNE,13,3.0,11.0,80,0.00,,,0.02,317.000000,,2013-06-19 21:44:00,
2013-06-19 14:52:00,47.0,41.0,-100.00,NNE,13,3.0,11.0,80,0.00,,,0.02,317.000000,,2013-06-19 21:52:00,
2013-06-19 14:53:00,50.0,42.0,-100.00,SSE,149,2.0,7.0,74,0.00,,,0.02,350.000000,,2013-06-19 21:53:00,
2013-06-19 15:22:00,50.0,42.0,-100.00,SSE,149,2.0,7.0,74,0.00,,,0.02,350.000000,,2013-06-19 22:22:00,
2013-06-19 15:34:00,50.0,42.0,-100.00,SSE,149,2.0,7.0,74,0.00,,,0.02,350.000000,,2013-06-19 22:34:00,
2013-06-19 15:42:00,50.0,42.0,-100.00,SSE,149,2.0,7.0,74,0.00,,,0.02,350.000000,,2013-06-19 22:42:00,
2013-06-19 16:23:00,49.0,43.0,-100.00,SSW,193,1.0,9.0,80,0.01,,,0.03,463.000000,,2013-06-19 23:23:00,
2013-06-19 16:33:00,49.0,43.0,-100.00,SSW,193,1.0,9.0,80,0.01,,,0.03,463.000000,,2013-06-19 23:33:00,
2013-06-19 16:43:00,49.0,43.0,-100.00,SSW,193,1.0,9.0,80,0.01,,,0.03,463.000000,,2013-06-19 23:43:00,
2013-06-19 16:52:00,49.0,43.0,-100.00,SSW,193,1.0,9.0,80,0.01,,,0.03,463.000000,,2013-06-19 23:52:00,
2013-06-19 17:22:00,50.0,41.0,-100.00,North,358,2.0,10.0,72,0.00,,,0.03,294.000000,,2013-06-20 00:22:00,
2013-06-19 17:33:00,50.0,41.0,-100.00,North,358,2.0,10.0,72,0.00,,,0.03,294.000000,,2013-06-20 00:33:00,
2013-06-19 17:44:00,50.0,41.0,-100.00,North,358,2.0,10.0,72,0.00,,,0.03,294.000000,,2013-06-20 00:44:00,
2013-06-19 17:52:00,50.0,41.0,-100.00,North,358,2.0,10.0,72,0.00,,,0.03,294.000000,,2013-06-20 00:52:00,
2013-06-19 18:22:00,46.0,44.0,-100.00,SW,214,2.0,17.0,92,0.05,,,0.08,117.000000,,2013-06-20 01:22:00,
2013-06-19 18:33:00,46.0,44.0,-100.00,SW,214,2.0,17.0,92,0.05,,,0.08,117.000000,,2013-06-20 01:33:00,
2013-06-19 18:44:00,46.0,44.0,-100.00,SW,214,2.0,17.0,92,0.05,,,0.08,117.000000,,2013-06-20 01:44:00,
2013-06-19 18:52:00,46.0,44.0,-100.00,SW,214,2.0,17.0,92,0.05,,,0.08,117.000000,,2013-06-20 01:52:00,
2013-06-19 19:24:00,44.0,41.0,-100.00,NNW,340,4.0,14.0,88,0.00,,,0.08,77.000000,,2013-06-20 02:24:00,
2013-06-19 19:33:00,44.0,41.0,-100.00,NNW,340,4.0,14.0,88,0.00,,,0.08,77.000000,,2013-06-20 02:33:00,
2013-06-19 19:43:00,44.0,41.0,-100.00,NNW,340,4.0,14.0,88,0.00,,,0.08,77.000000,,2013-06-20 02:43:00,
2013-06-19 19:52:00,44.0,41.0,-100.00,NNW,340,4.0,14.0,88,0.00,,,0.08,77.000000,,2013-06-20 02:52:00,
2013-06-19 19:53:00,44.0,40.0,-100.00,North,1,3.0,13.0,85,0.00,,,0.08,61.000000,,2013-06-20 02:53:00,
2013-06-19 20:22:00,44.0,40.0,-100.00,North,1,3.0,13.0,85,0.00,,,0.08,61.000000,,2013-06-20 03:22:00,
2013-06-19 20:33:00,44.0,40.0,-100.00,North,1,3.0,13.0,85,0.00,,,0.08,61.000000,,2013-06-20 03:33:00,
2013-06-19 20:43:00,44.0,40.0,-100.00,North,1,3.0,13.0,85,0.00,,,0.08,61.000000,,2013-06-20 03:43:00,
2013-06-19 20:53:00,44.0,40.0,-100.00,NW,316,3.0,13.0,87,0.00,,,0.08,33.000000,,2013-06-20 03:53:00,
2013-06-19 21:22:00,44.0,40.0,-100.00,NW,316,3.0,13.0,87,0.00,,,0.08,33.000000,,2013-06-20 04:22:00,
2013-06-19 21:33:00,44.0,40.0,-100.00,NW,316,3.0,13.0,87,0.00,,,0.08,33.000000,,2013-06-20 04:33:00,
2013-06-19 21:43:00,44.0,40.0,-100.00,NW,316,3.0,13.0,87,0.00,,,0.08,33.000000,,2013-06-20 04:43:00,
2013-06-19 22:22:00,43.0,38.0,-100.00,NW,313,2.0,16.0,84,0.00,,,0.08,1.000000,,2013-06-20 05:22:00,
2013-06-19 22:33:00,43.0,38.0,-100.00,NW,313,2.0,16.0,84,0.00,,,0.08,1.000000,,2013-06-20 05:33:00,
2013-06-19 22:44:00,43.0,38.0,-100.00,NW,313,2.0,16.0,84,0.00,,,0.08,1.000000,,2013-06-20 05:44:00,
2013-06-19 22:52:00,43.0,38.0,-100.00,NW,313,2.0,16.0,84,0.00,,,0.08,1.000000,,2013-06-20 05:52:00,
2013-06-19 22:53:00,43.0,39.0,-100.00,SE,133,4.0,13.0,86,0.00,,,0.08,0.000000,,2013-06-20 05:53:00,
2013-06-19 23:22:00,43.0,39.0,-100.00,SE,133,4.0,13.0,86,0.00,,,0.08,0.000000,,2013-06-20 06:22:00,
2013-06-19 23:33:00,43.0,39.0,-100.00,SE,133,4.0,13.0,86,0.00,,,0.08,0.000000,,2013-06-20 06:33:00,
2013-06-19 23:43:00,43.0,39.0,-100.00,SE,133,4.0,13.0,86,0.00,,,0.08,0.000000,,2013-06-20 06:43:00,